Terminal Aerodrome Forecast
Issued by NWS Wichita, KS

Home | Current Version | Previous Version | Text Only | Print | Product List | Glossary Off
Versions: 1 2 3 4 5 6 7 8 9 10 11 12 13 14 15 16 17 18 19 20 21 22 23 24 25 26 27 28

000
FTUS43 KICT 260520
TAFICT
TAF
KICT 260520Z 2606/2706 VRB06KT P6SM -RA SCT040 OVC090
      TEMPO 2606/2610 VRB15G25KT 5SM SHRA OVC035
     FM261000 19004KT 3SM BR SCT005 BKN200
     FM261700 22007KT P6SM SCT035
     FM262000 19008KT P6SM VCTS SCT040CB BKN070=

USA.gov is the U.S. government's official web portal to all federal, state and local government web resources and services.